createdAt,value
2022-08-14T00:00:09.087Z,2.97
2022-08-14T00:02:13.918Z,2.95
2022-08-14T00:04:34.106Z,3.33
2022-08-14T00:06:37.666Z,3.22
2022-08-14T00:08:43.742Z,2.67
2022-08-14T00:10:49.786Z,3.00
2022-08-14T00:12:56.743Z,2.92
2022-08-14T00:14:58.731Z,2.72
2022-08-14T00:17:00.946Z,2.70
2022-08-14T00:19:06.375Z,2.92
2022-08-14T00:21:22.354Z,3.15
2022-08-14T00:23:29.790Z,2.72
2022-08-14T00:25:42.512Z,3.00
2022-08-14T00:27:44.577Z,3.67
2022-08-14T00:29:50.719Z,2.92
2022-08-14T00:31:56.241Z,3.20
2022-08-14T00:33:58.767Z,3.03
2022-08-14T00:36:36.339Z,3.65
2022-08-14T00:38:45.026Z,3.42
2022-08-14T00:40:47.995Z,4.40
2022-08-14T00:42:55.091Z,3.13
2022-08-14T00:44:57.701Z,3.63
2022-08-14T00:47:00.389Z,3.70
2022-08-14T00:49:02.411Z,3.30
2022-08-14T00:51:04.840Z,3.65
2022-08-14T00:53:10.502Z,3.65
2022-08-14T00:55:12.661Z,3.38
2022-08-14T00:57:15.445Z,3.35
2022-08-14T00:59:18.620Z,3.73
2022-08-14T01:01:20.632Z,5.32
2022-08-14T01:03:24.976Z,3.55
2022-08-14T01:05:41.799Z,3.35
2022-08-14T01:07:57.028Z,3.77
2022-08-14T01:10:05.191Z,3.42
2022-08-14T01:12:07.803Z,4.13
2022-08-14T01:14:26.041Z,3.45
2022-08-14T01:16:31.464Z,3.03
2022-08-14T01:18:57.875Z,3.93
2022-08-14T01:21:06.425Z,4.15
2022-08-14T01:23:10.391Z,3.47
2022-08-14T01:25:18.395Z,3.58
2022-08-14T01:27:22.314Z,3.03
2022-08-14T01:29:58.965Z,3.65
2022-08-14T01:31:54.702Z,3.45
2022-08-14T01:35:15.840Z,3.60
2022-08-14T01:36:23.192Z,3.42
2022-08-14T01:38:24.958Z,3.20
2022-08-14T01:40:36.431Z,3.55
2022-08-14T01:42:44.456Z,3.92
2022-08-14T01:44:54.305Z,4.13
2022-08-14T01:47:00.918Z,4.20
2022-08-14T01:49:04.322Z,3.80
2022-08-14T01:51:19.081Z,3.88
2022-08-14T01:53:22.591Z,3.60
2022-08-14T01:55:30.479Z,3.25
2022-08-14T01:57:49.266Z,3.45
2022-08-14T01:59:56.835Z,3.20
2022-08-14T02:02:02.212Z,3.28
2022-08-14T02:04:05.758Z,4.10
2022-08-14T02:06:33.257Z,2.92
2022-08-14T02:08:37.893Z,3.10
2022-08-14T02:11:17.146Z,3.55
2022-08-14T02:13:20.906Z,3.88
2022-08-14T02:15:23.946Z,3.58
2022-08-14T02:17:25.570Z,3.78
2022-08-14T02:19:28.524Z,3.20
2022-08-14T02:21:39.563Z,3.70
2022-08-14T02:23:46.695Z,3.83
2022-08-14T02:25:54.536Z,3.70
2022-08-14T02:28:22.669Z,3.28
2022-08-14T02:30:18.212Z,3.45
2022-08-14T02:32:30.308Z,3.70
2022-08-14T02:34:38.514Z,4.03
2022-08-14T02:37:04.591Z,3.97
2022-08-14T02:39:17.208Z,4.10
2022-08-14T02:41:28.859Z,3.10
2022-08-14T02:43:46.369Z,3.95
2022-08-14T02:45:57.132Z,3.92
2022-08-14T02:48:10.559Z,3.67
2022-08-14T02:50:51.578Z,3.42
2022-08-14T02:53:07.485Z,3.72
2022-08-14T02:55:17.385Z,4.05
2022-08-14T02:57:39.936Z,2.75
2022-08-14T02:59:43.423Z,3.30
2022-08-14T03:01:51.138Z,3.05
2022-08-14T03:03:56.194Z,3.85
2022-08-14T03:05:57.860Z,3.65
2022-08-14T03:08:11.175Z,3.55
2022-08-14T03:10:25.883Z,3.08
2022-08-14T03:12:31.678Z,3.38
2022-08-14T03:14:39.722Z,3.92
2022-08-14T03:16:45.427Z,4.75
2022-08-14T03:18:53.583Z,4.18
2022-08-14T03:20:55.102Z,3.10
2022-08-14T03:23:03.242Z,3.60
2022-08-14T03:25:06.222Z,3.65
2022-08-14T03:27:14.029Z,5.30
2022-08-14T03:31:20.009Z,3.70
2022-08-14T03:33:23.056Z,3.15
2022-08-14T03:35:24.726Z,3.30
2022-08-14T03:40:00.637Z,3.38
2022-08-14T03:42:02.443Z,3.10
2022-08-14T03:45:19.531Z,2.88
2022-08-14T03:46:51.829Z,3.72
2022-08-14T03:48:54.547Z,3.53
2022-08-14T03:50:56.701Z,3.40
2022-08-14T03:53:02.584Z,3.53
2022-08-14T03:55:08.119Z,4.00
2022-08-14T03:57:09.621Z,4.40
2022-08-14T03:59:18.112Z,4.47
2022-08-14T04:01:21.490Z,3.47
2022-08-14T04:03:24.598Z,4.03
2022-08-14T04:05:26.427Z,3.47
2022-08-14T04:07:28.221Z,4.13
2022-08-14T04:09:35.032Z,3.90
2022-08-14T04:11:36.879Z,2.88
2022-08-14T04:13:41.840Z,3.60
2022-08-14T04:16:01.845Z,3.38
2022-08-14T04:18:08.527Z,3.03
2022-08-14T04:20:13.645Z,3.33
2022-08-14T04:22:27.422Z,3.35
2022-08-14T04:24:29.304Z,3.67
2022-08-14T04:26:42.319Z,3.50
2022-08-14T04:29:05.331Z,3.40
2022-08-14T04:31:07.426Z,3.33
2022-08-14T04:33:17.153Z,3.13
2022-08-14T04:35:23.486Z,3.80
2022-08-14T04:37:45.292Z,4.43
2022-08-14T04:40:19.222Z,3.65
2022-08-14T04:42:39.447Z,3.60
2022-08-14T04:44:51.517Z,3.78
2022-08-14T04:47:21.013Z,3.40
2022-08-14T04:49:22.610Z,3.38
2022-08-14T04:51:28.180Z,3.70
2022-08-14T04:53:34.664Z,3.58
2022-08-14T04:55:37.530Z,4.03
2022-08-14T04:57:39.335Z,4.07
2022-08-14T04:59:42.950Z,4.25
2022-08-14T05:01:48.887Z,3.78
2022-08-14T05:03:53.390Z,3.88
2022-08-14T05:05:57.390Z,4.10
2022-08-14T05:08:32.292Z,3.47
2022-08-14T05:10:33.708Z,4.05
2022-08-14T05:13:10.932Z,3.70
2022-08-14T05:14:57.305Z,3.80
2022-08-14T05:17:01.720Z,3.50
2022-08-14T05:19:17.739Z,3.60
2022-08-14T05:21:59.859Z,3.40
2022-08-14T05:23:51.883Z,3.70
2022-08-14T05:26:00.137Z,3.75
2022-08-14T05:28:16.384Z,3.70
2022-08-14T05:30:19.622Z,3.97
2022-08-14T05:32:21.519Z,3.72
2022-08-14T05:34:28.878Z,4.07
2022-08-14T05:36:33.848Z,3.88
2022-08-14T05:38:39.131Z,3.97
2022-08-14T05:40:41.557Z,4.10
2022-08-14T05:42:46.727Z,3.78
2022-08-14T05:44:56.832Z,3.42
2022-08-14T05:47:01.089Z,4.05
2022-08-14T05:49:06.466Z,4.00
2022-08-14T05:51:13.862Z,4.82
2022-08-14T05:53:17.950Z,3.38
2022-08-14T05:55:26.010Z,4.13
2022-08-14T05:57:29.743Z,3.22
2022-08-14T06:01:42.682Z,2.58
2022-08-14T06:03:47.884Z,2.85
2022-08-14T06:05:52.728Z,3.72
2022-08-14T06:09:57.359Z,3.85
2022-08-14T06:12:01.758Z,3.63
2022-08-14T06:14:03.612Z,3.20
2022-08-14T06:16:05.587Z,3.15
2022-08-14T06:18:07.915Z,3.30
2022-08-14T06:20:10.353Z,3.60
2022-08-14T06:22:11.918Z,2.78
2022-08-14T06:24:18.623Z,3.42
2022-08-14T06:26:22.005Z,3.30
2022-08-14T06:28:27.504Z,2.67
2022-08-14T06:30:46.541Z,3.63
2022-08-14T06:32:52.762Z,3.00
2022-08-14T06:35:03.104Z,2.17
2022-08-14T06:37:13.506Z,2.13
2022-08-14T06:39:18.462Z,2.20
2022-08-14T06:41:57.481Z,2.13
2022-08-14T06:44:00.553Z,2.03
2022-08-14T06:46:04.192Z,2.00
2022-08-14T06:48:12.792Z,2.10
2022-08-14T06:50:16.025Z,2.20
2022-08-14T06:52:19.180Z,2.08
2022-08-14T06:54:21.205Z,1.58
2022-08-14T06:56:23.579Z,1.98
2022-08-14T06:58:29.410Z,1.77
2022-08-14T07:00:33.014Z,1.65
2022-08-14T07:02:52.979Z,1.80
2022-08-14T07:05:13.387Z,1.55
2022-08-14T07:07:23.407Z,1.58
2022-08-14T07:09:25.613Z,1.80
2022-08-14T07:11:29.724Z,1.20
2022-08-14T07:13:31.741Z,2.33
2022-08-14T07:15:39.858Z,2.00
2022-08-14T07:17:47.014Z,1.50
2022-08-14T07:19:54.030Z,1.63
2022-08-14T07:21:56.778Z,1.60
2022-08-14T07:23:58.997Z,1.33
2022-08-14T07:26:02.209Z,1.70
2022-08-14T07:28:09.969Z,1.20
2022-08-14T07:30:34.659Z,1.27
2022-08-14T07:32:36.727Z,1.17
2022-08-14T07:34:41.182Z,1.48
2022-08-14T07:36:58.082Z,1.20
2022-08-14T07:39:00.828Z,1.73
2022-08-14T07:41:11.778Z,1.55
2022-08-14T07:43:16.504Z,1.70
2022-08-14T07:45:18.211Z,1.65
2022-08-14T07:47:19.905Z,1.30
2022-08-14T07:49:24.139Z,1.30
2022-08-14T07:57:31.000Z,1.40
2022-08-14T07:59:41.505Z,1.42
2022-08-14T08:01:48.161Z,1.13
2022-08-14T08:03:57.355Z,1.20
2022-08-14T08:06:01.862Z,1.30
2022-08-14T08:08:04.220Z,1.10
2022-08-14T08:11:01.367Z,1.40
2022-08-14T08:15:02.928Z,1.40
2022-08-14T08:17:08.007Z,1.35
2022-08-14T08:19:13.943Z,1.27
2022-08-14T08:21:16.039Z,1.30
2022-08-14T08:23:20.765Z,1.20
2022-08-14T08:25:23.111Z,1.17
2022-08-14T08:27:25.887Z,1.38
2022-08-14T08:29:29.013Z,1.60
2022-08-14T08:31:33.085Z,1.20
2022-08-14T08:33:38.550Z,0.95
2022-08-14T08:35:47.094Z,1.38
2022-08-14T08:37:53.660Z,1.00
2022-08-14T08:48:36.557Z,1.35
2022-08-14T08:50:45.042Z,1.00
2022-08-14T08:52:58.267Z,1.20
2022-08-14T08:55:05.210Z,1.25
2022-08-14T08:57:16.215Z,1.25
2022-08-14T08:59:31.657Z,0.98
2022-08-14T09:01:42.863Z,1.08
2022-08-14T09:03:50.868Z,1.05
2022-08-14T09:20:29.716Z,1.20
2022-08-14T09:28:51.140Z,0.98
2022-08-14T09:30:57.791Z,0.77
2022-08-14T09:33:07.410Z,0.85
2022-08-14T09:35:17.206Z,1.02
2022-08-14T09:37:25.922Z,0.90
2022-08-14T09:39:34.065Z,1.00
2022-08-14T09:42:21.164Z,1.20
2022-08-14T09:44:09.290Z,1.00
2022-08-14T09:46:10.861Z,1.05
2022-08-14T09:48:20.198Z,1.00
2022-08-14T09:50:44.011Z,1.02
2022-08-14T09:52:54.979Z,1.02
2022-08-14T09:54:58.978Z,0.88
2022-08-14T09:57:01.410Z,0.90
2022-08-14T09:59:15.015Z,0.98
2022-08-14T10:01:18.219Z,1.02
2022-08-14T10:03:36.637Z,0.70
2022-08-14T10:05:39.637Z,0.70
2022-08-14T10:07:53.881Z,0.70
2022-08-14T10:10:02.258Z,0.90
2022-08-14T10:12:06.880Z,1.10
2022-08-14T10:14:29.596Z,0.75
2022-08-14T10:16:42.919Z,1.25
2022-08-14T10:18:44.546Z,1.00
2022-08-14T10:20:58.036Z,1.05
2022-08-14T10:23:15.574Z,0.90
2022-08-14T10:25:19.851Z,1.30
2022-08-14T10:27:26.658Z,0.90
2022-08-14T10:29:37.770Z,0.70
2022-08-14T10:31:44.624Z,0.70
2022-08-14T10:33:59.157Z,1.10
2022-08-14T10:36:01.505Z,1.25
2022-08-14T10:38:07.340Z,0.80
2022-08-14T10:40:16.955Z,1.40
2022-08-14T10:42:38.114Z,0.60
2022-08-14T10:44:39.658Z,0.70
2022-08-14T10:47:37.235Z,0.90
2022-08-14T10:49:04.915Z,0.63
2022-08-14T10:51:08.417Z,0.80
2022-08-14T10:53:10.253Z,0.90
2022-08-14T10:55:15.645Z,0.80
2022-08-14T10:57:18.796Z,0.65
2022-08-14T10:59:22.914Z,0.47
2022-08-14T11:01:34.224Z,0.93
2022-08-14T11:03:56.903Z,1.10
2022-08-14T11:06:01.230Z,0.70
2022-08-14T11:08:02.948Z,0.60
2022-08-14T11:10:12.566Z,0.70
2022-08-14T11:12:33.881Z,0.90
2022-08-14T11:14:36.582Z,0.77
2022-08-14T11:16:40.982Z,0.85
2022-08-14T11:18:51.725Z,0.93
2022-08-14T11:20:59.786Z,1.10
2022-08-14T11:23:01.874Z,0.70
2022-08-14T11:25:06.552Z,0.70
2022-08-14T11:27:08.675Z,0.60
2022-08-14T11:29:11.252Z,0.50
2022-08-14T11:31:14.033Z,0.70
2022-08-14T11:33:16.327Z,0.68
2022-08-14T11:37:31.662Z,0.65
2022-08-14T11:39:41.680Z,0.50
2022-08-14T11:41:55.679Z,0.40
2022-08-14T11:43:58.655Z,0.30
2022-08-14T11:46:03.708Z,0.35
2022-08-14T11:49:02.359Z,0.35
2022-08-14T11:50:46.934Z,0.40
2022-08-14T11:53:04.390Z,0.38
2022-08-14T11:55:25.059Z,0.40
2022-08-14T11:57:37.829Z,0.38
2022-08-14T11:59:56.047Z,0.40
2022-08-14T12:03:01.731Z,0.40
2022-08-14T12:04:56.147Z,0.70
2022-08-14T12:07:20.566Z,0.77
2022-08-14T12:09:46.929Z,0.60
2022-08-14T12:12:35.860Z,0.68
2022-08-14T12:14:52.293Z,0.63
2022-08-14T12:17:13.110Z,0.52
2022-08-14T12:19:18.260Z,0.70
2022-08-14T12:21:23.918Z,0.50
2022-08-14T12:23:27.691Z,0.50
2022-08-14T12:25:29.667Z,0.47
2022-08-14T12:27:46.612Z,0.55
2022-08-14T12:29:54.627Z,0.70
2022-08-14T12:32:00.470Z,0.70
2022-08-14T12:34:03.992Z,0.65
2022-08-14T12:36:21.002Z,0.50
2022-08-14T12:38:45.170Z,0.40
2022-08-14T12:40:51.994Z,0.70
2022-08-14T12:42:59.215Z,0.55
2022-08-14T12:45:03.715Z,0.47
2022-08-14T12:49:16.425Z,0.80
2022-08-14T12:51:21.669Z,0.63
2022-08-14T12:53:38.348Z,0.60
2022-08-14T12:56:18.617Z,0.50
2022-08-14T12:58:05.979Z,0.70
2022-08-14T13:00:26.819Z,0.68
2022-08-14T13:02:29.960Z,0.40
2022-08-14T13:04:31.603Z,0.50
2022-08-14T13:06:37.843Z,0.40
2022-08-14T13:08:43.329Z,0.57
2022-08-14T13:10:54.413Z,0.70
2022-08-14T13:13:15.623Z,0.70
2022-08-14T13:15:20.468Z,0.30
2022-08-14T13:17:23.157Z,0.90
2022-08-14T13:19:26.706Z,0.93
2022-08-14T13:21:31.765Z,0.43
2022-08-14T13:23:54.506Z,0.50
2022-08-14T13:25:58.109Z,0.50
2022-08-14T13:28:00.011Z,0.60
2022-08-14T13:30:04.046Z,0.63
2022-08-14T13:32:13.137Z,0.60
2022-08-14T13:34:14.982Z,0.40
2022-08-14T13:36:23.755Z,0.52
2022-08-14T13:38:26.695Z,1.00
2022-08-14T13:40:29.907Z,0.40
2022-08-14T13:42:31.919Z,0.43
2022-08-14T13:44:36.159Z,0.95
2022-08-14T13:46:39.481Z,0.93
2022-08-14T13:48:45.254Z,0.65
2022-08-14T13:50:48.752Z,0.93
2022-08-14T13:52:55.217Z,0.60
2022-08-14T13:54:58.429Z,0.80
2022-08-14T13:57:01.046Z,0.55
2022-08-14T13:59:02.834Z,0.68
2022-08-14T14:01:06.838Z,1.52
2022-08-14T14:03:10.358Z,0.50
2022-08-14T14:05:21.087Z,0.65
2022-08-14T14:07:23.506Z,0.70
2022-08-14T14:09:37.767Z,0.35
2022-08-14T14:11:53.023Z,0.35
2022-08-14T14:13:55.483Z,0.50
2022-08-14T14:15:58.368Z,0.50
2022-08-14T14:18:00.777Z,0.80
2022-08-14T14:20:03.109Z,0.55
2022-08-14T14:22:06.423Z,0.60
2022-08-14T14:24:14.662Z,0.40
2022-08-14T14:26:23.037Z,0.47
2022-08-14T14:28:28.802Z,0.32
2022-08-14T14:30:52.014Z,0.40
2022-08-14T14:33:05.289Z,0.60
2022-08-14T14:35:19.299Z,0.40
2022-08-14T14:37:21.973Z,0.43
2022-08-14T14:39:28.707Z,0.65
2022-08-14T14:41:37.891Z,0.77
2022-08-14T14:43:44.978Z,0.40
2022-08-14T14:45:49.158Z,0.60
2022-08-14T14:47:59.000Z,0.60
2022-08-14T14:50:03.575Z,0.60
2022-08-14T14:52:07.261Z,0.60
2022-08-14T14:54:09.083Z,0.68
2022-08-14T14:56:49.303Z,0.50
2022-08-14T14:58:40.262Z,0.30
2022-08-14T15:00:50.253Z,0.50
2022-08-14T15:03:00.175Z,0.50
2022-08-14T15:05:10.930Z,0.68
2022-08-14T15:07:19.640Z,0.57
2022-08-14T15:09:29.574Z,0.68
2022-08-14T15:11:39.791Z,0.73
2022-08-14T15:13:52.952Z,0.55
2022-08-14T15:16:02.601Z,0.80
2022-08-14T15:18:35.886Z,0.65
2022-08-14T15:20:36.525Z,0.85
2022-08-14T15:22:39.774Z,0.73
2022-08-14T15:24:45.106Z,0.68
2022-08-14T15:26:48.170Z,0.70
2022-08-14T15:28:49.705Z,0.60
2022-08-14T15:31:05.264Z,0.43
2022-08-14T15:33:10.109Z,0.68
2022-08-14T15:35:15.590Z,0.40
2022-08-14T15:37:18.471Z,0.40
2022-08-14T15:39:20.462Z,0.57
2022-08-14T15:41:23.126Z,0.60
2022-08-14T15:43:27.242Z,0.50
2022-08-14T15:45:29.400Z,0.45
2022-08-14T15:47:32.355Z,0.70
2022-08-14T15:49:35.311Z,0.45
2022-08-14T15:51:36.922Z,0.60
2022-08-14T15:53:46.734Z,0.60
2022-08-14T15:55:53.059Z,0.60
2022-08-14T15:58:03.180Z,0.63
2022-08-14T16:00:40.852Z,0.57
2022-08-14T16:02:46.915Z,0.68
2022-08-14T16:04:51.834Z,0.60
2022-08-14T16:06:55.411Z,0.50
2022-08-14T16:09:02.179Z,0.30
2022-08-14T16:11:09.959Z,0.63
2022-08-14T16:13:12.897Z,0.50
2022-08-14T16:15:18.953Z,0.35
2022-08-14T16:17:21.587Z,0.50
2022-08-14T16:19:23.835Z,0.70
2022-08-14T16:21:29.541Z,0.60
2022-08-14T16:23:36.122Z,0.38
2022-08-14T16:25:40.431Z,0.68
2022-08-14T16:27:43.259Z,0.40
2022-08-14T16:29:45.486Z,0.40
2022-08-14T16:31:47.578Z,0.50
2022-08-14T16:34:00.193Z,0.47
2022-08-14T16:36:03.558Z,0.35
2022-08-14T16:38:45.583Z,0.45
2022-08-14T16:40:53.234Z,0.50
2022-08-14T16:43:04.104Z,0.50
2022-08-14T16:45:14.655Z,0.60
2022-08-14T16:47:17.465Z,0.60
2022-08-14T16:49:26.145Z,0.55
2022-08-14T16:51:51.362Z,0.65
2022-08-14T16:54:00.034Z,0.50
2022-08-14T16:56:17.140Z,1.02
2022-08-14T16:58:27.112Z,0.60
2022-08-14T17:00:43.032Z,0.55
2022-08-14T17:02:46.470Z,0.52
2022-08-14T17:04:49.366Z,0.40
2022-08-14T17:06:52.861Z,0.60
2022-08-14T17:08:57.536Z,0.60
2022-08-14T17:11:00.826Z,0.63
2022-08-14T17:13:59.550Z,0.50
2022-08-14T17:16:24.025Z,0.63
2022-08-14T17:18:41.380Z,0.73
2022-08-14T17:21:01.795Z,0.60
2022-08-14T17:23:10.938Z,0.50
2022-08-14T17:25:13.528Z,0.60
2022-08-14T17:27:22.078Z,0.60
2022-08-14T17:29:29.483Z,0.40
2022-08-14T17:31:58.079Z,0.60
2022-08-14T17:33:54.522Z,0.50
2022-08-14T17:36:21.393Z,0.77
2022-08-14T17:38:39.265Z,0.70
2022-08-14T17:40:41.482Z,0.50
2022-08-14T17:42:43.154Z,0.80
2022-08-14T17:44:47.022Z,0.68
2022-08-14T17:46:55.235Z,0.55
2022-08-14T17:49:15.033Z,0.52
2022-08-14T17:51:23.412Z,0.50
2022-08-14T17:53:26.190Z,0.55
2022-08-14T17:56:02.510Z,0.50
2022-08-14T17:57:51.273Z,0.70
2022-08-14T17:59:54.442Z,0.50
2022-08-14T18:01:57.596Z,0.70
2022-08-14T18:04:27.894Z,0.50
2022-08-14T18:06:38.468Z,0.80
2022-08-14T18:08:55.287Z,0.50
2022-08-14T18:11:04.437Z,0.57
2022-08-14T18:13:14.289Z,0.60
2022-08-14T18:15:23.985Z,0.70
2022-08-14T18:17:52.599Z,0.73
2022-08-14T18:21:23.425Z,0.70
2022-08-14T18:22:37.844Z,0.75
2022-08-14T18:24:51.039Z,0.73
2022-08-14T18:27:17.628Z,0.70
2022-08-14T18:29:26.354Z,0.75
2022-08-14T18:31:43.860Z,0.90
2022-08-14T18:33:52.389Z,0.90
2022-08-14T18:35:58.630Z,1.27
2022-08-14T18:38:26.429Z,1.33
2022-08-14T18:40:40.163Z,1.60
2022-08-14T18:42:45.507Z,1.92
2022-08-14T18:47:07.457Z,2.50
2022-08-14T18:49:13.910Z,2.45
2022-08-14T18:51:24.894Z,2.67
2022-08-14T18:53:59.538Z,3.47
2022-08-14T18:56:09.309Z,3.85
2022-08-14T18:58:28.201Z,3.67
2022-08-14T19:00:43.162Z,3.80
2022-08-14T19:02:52.996Z,3.58
2022-08-14T19:04:56.413Z,4.10
2022-08-14T19:07:16.325Z,4.47
2022-08-14T19:09:40.970Z,3.90
2022-08-14T19:11:50.397Z,3.65
2022-08-14T19:13:53.134Z,3.92
2022-08-14T19:16:05.295Z,3.63
2022-08-14T19:18:25.841Z,3.70
2022-08-14T19:20:44.883Z,4.13
2022-08-14T19:22:47.566Z,4.15
2022-08-14T19:24:50.566Z,2.80
2022-08-14T19:27:05.297Z,3.28
2022-08-14T19:29:21.084Z,3.25
2022-08-14T19:31:37.139Z,3.20
2022-08-14T19:33:45.518Z,3.35
2022-08-14T19:35:49.486Z,3.55
2022-08-14T19:40:15.154Z,2.95
2022-08-14T19:42:28.232Z,3.00
2022-08-14T19:44:32.503Z,3.40
2022-08-14T19:46:38.432Z,3.38
2022-08-14T19:48:58.731Z,4.05
2022-08-14T19:51:04.498Z,3.55
2022-08-14T19:53:11.278Z,2.75
2022-08-14T19:55:17.628Z,2.72
2022-08-14T19:57:24.699Z,2.60
2022-08-14T19:59:26.486Z,2.83
2022-08-14T20:01:39.264Z,2.63
2022-08-14T20:04:00.431Z,2.75
2022-08-14T20:06:05.630Z,2.55
2022-08-14T20:08:07.685Z,2.83
2022-08-14T20:11:07.227Z,2.70
2022-08-14T20:12:58.285Z,3.17
2022-08-14T20:15:08.797Z,3.20
2022-08-14T20:17:14.254Z,2.97
2022-08-14T20:19:16.137Z,2.95
2022-08-14T20:21:21.667Z,3.22
2022-08-14T20:23:23.568Z,3.47
2022-08-14T20:25:26.039Z,3.08
2022-08-14T20:27:33.857Z,2.60
2022-08-14T20:29:45.983Z,3.03
2022-08-14T20:31:48.046Z,3.58
2022-08-14T20:34:24.320Z,3.45
2022-08-14T20:36:37.136Z,3.03
2022-08-14T20:38:38.584Z,2.97
2022-08-14T20:40:50.449Z,3.60
2022-08-14T20:43:12.371Z,3.92
2022-08-14T20:45:24.233Z,2.53
2022-08-14T20:47:26.391Z,3.80
2022-08-14T20:49:49.014Z,3.20
2022-08-14T20:52:04.999Z,3.00
2022-08-14T20:54:08.084Z,2.90
2022-08-14T20:56:28.752Z,3.53
2022-08-14T20:58:43.270Z,4.55
2022-08-14T21:00:52.266Z,4.97
2022-08-14T21:02:55.424Z,4.30
2022-08-14T21:07:24.632Z,3.13
2022-08-14T21:10:03.171Z,3.70
2022-08-14T21:12:02.987Z,3.60
2022-08-14T21:14:20.409Z,3.47
2022-08-14T21:16:39.331Z,2.75
2022-08-14T21:18:51.026Z,3.45
2022-08-14T21:21:01.222Z,4.68
2022-08-14T21:23:16.443Z,3.65
2022-08-14T21:25:25.675Z,3.53
2022-08-14T21:27:43.235Z,3.78
2022-08-14T21:30:08.673Z,3.58
2022-08-14T21:32:33.895Z,3.10
2022-08-14T21:34:37.607Z,3.63
2022-08-14T21:36:41.578Z,3.03
2022-08-14T21:38:45.555Z,3.55
2022-08-14T21:42:48.916Z,4.13
2022-08-14T21:44:52.629Z,2.88
2022-08-14T21:46:56.072Z,3.45
2022-08-14T21:48:58.081Z,3.53
2022-08-14T21:51:54.430Z,3.17
2022-08-14T21:53:25.018Z,3.75
2022-08-14T21:55:26.543Z,3.15
2022-08-14T21:57:53.574Z,3.85
2022-08-14T21:59:57.511Z,3.55
2022-08-14T22:02:04.878Z,3.28
2022-08-14T22:04:33.189Z,3.63
2022-08-14T22:06:30.453Z,3.80
2022-08-14T22:08:35.271Z,4.35
2022-08-14T22:12:58.736Z,3.67
2022-08-14T22:15:01.828Z,4.30
2022-08-14T22:17:13.190Z,3.67
2022-08-14T22:19:19.749Z,3.55
2022-08-14T22:21:21.697Z,3.50
2022-08-14T22:23:23.887Z,3.10
2022-08-14T22:25:33.033Z,3.95
2022-08-14T22:27:36.758Z,3.50
2022-08-14T22:29:58.515Z,4.20
2022-08-14T22:32:00.298Z,3.40
2022-08-14T22:34:07.755Z,4.10
2022-08-14T22:36:33.962Z,3.50
2022-08-14T22:38:49.894Z,4.03
2022-08-14T22:41:20.352Z,3.35
2022-08-14T22:43:14.393Z,3.15
2022-08-14T22:47:25.004Z,4.50
2022-08-14T22:50:31.239Z,4.13
2022-08-14T22:51:50.222Z,3.60
2022-08-14T22:53:54.012Z,3.25
2022-08-14T22:55:55.475Z,3.85
2022-08-14T22:57:58.168Z,3.97
2022-08-14T22:59:59.667Z,4.63
2022-08-14T23:02:11.915Z,4.03
2022-08-14T23:04:34.969Z,4.53
2022-08-14T23:07:03.506Z,4.72
2022-08-14T23:09:35.195Z,4.50
2022-08-14T23:11:19.009Z,4.20
2022-08-14T23:13:22.098Z,6.18
2022-08-14T23:15:29.000Z,7.37
2022-08-14T23:17:39.430Z,5.93
2022-08-14T23:19:43.794Z,6.43
2022-08-14T23:21:47.660Z,6.88
2022-08-14T23:23:51.119Z,6.72
2022-08-14T23:26:47.123Z,6.90
2022-08-14T23:28:33.548Z,7.10
2022-08-14T23:30:41.574Z,7.07
2022-08-14T23:32:53.083Z,6.90
2022-08-14T23:34:55.127Z,5.82
2022-08-14T23:36:57.790Z,6.35
2022-08-14T23:39:00.291Z,5.65
2022-08-14T23:41:03.163Z,7.50
2022-08-14T23:45:09.802Z,7.90
2022-08-14T23:47:26.078Z,9.25
2022-08-14T23:49:49.665Z,9.55
2022-08-14T23:52:51.541Z,11.95
2022-08-14T23:54:47.319Z,10.65
2022-08-14T23:56:35.866Z,11.02
2022-08-14T23:58:38.267Z,10.98
